createdAt,value
2019-01-06T00:01:30.781Z,2.40
2019-01-06T00:04:18.459Z,2.80
2019-01-06T00:07:18.393Z,2.53
2019-01-06T00:10:07.236Z,2.60
2019-01-06T00:12:58.496Z,2.53
2019-01-06T00:15:48.070Z,2.27
2019-01-06T00:18:37.888Z,2.40
2019-01-06T00:21:35.295Z,2.57
2019-01-06T00:24:37.897Z,2.20
2019-01-06T00:27:23.295Z,2.97
2019-01-06T00:30:25.529Z,2.23
2019-01-06T00:33:21.672Z,1.90
2019-01-06T00:36:25.580Z,1.80
2019-01-06T00:39:15.245Z,2.00
2019-01-06T00:42:22.668Z,2.10
2019-01-06T00:45:20.402Z,1.80
2019-01-06T00:48:18.444Z,2.63
2019-01-06T00:51:15.767Z,2.80
2019-01-06T00:54:03.587Z,2.50
2019-01-06T00:56:52.251Z,2.37
2019-01-06T00:59:41.011Z,2.17
2019-01-06T01:02:36.375Z,2.80
2019-01-06T01:05:26.446Z,2.60
2019-01-06T01:08:13.885Z,2.10
2019-01-06T01:13:58.622Z,1.77
2019-01-06T01:16:53.433Z,2.00
2019-01-06T01:19:39.009Z,1.90
2019-01-06T01:22:31.998Z,1.87
2019-01-06T01:25:36.621Z,2.30
2019-01-06T01:28:43.747Z,1.67
2019-01-06T01:31:32.571Z,1.97
2019-01-06T01:34:16.977Z,1.60
2019-01-06T01:37:22.962Z,1.70
2019-01-06T01:40:10.426Z,1.87
2019-01-06T01:43:02.999Z,2.17
2019-01-06T01:45:36.189Z,1.70
2019-01-06T01:48:34.443Z,1.40
2019-01-06T01:51:22.466Z,1.47
2019-01-06T01:54:27.348Z,1.53
2019-01-06T01:57:15.549Z,1.40
2019-01-06T02:00:05.350Z,1.33
2019-01-06T02:03:06.596Z,1.23
2019-01-06T02:06:15.570Z,1.13
2019-01-06T02:09:04.035Z,1.40
2019-01-06T02:11:52.655Z,1.80
2019-01-06T02:14:33.857Z,2.10
2019-01-06T02:17:35.557Z,1.47
2019-01-06T02:20:24.032Z,1.30
2019-01-06T02:23:18.922Z,1.10
2019-01-06T02:26:12.466Z,1.20
2019-01-06T02:29:05.595Z,1.10
2019-01-06T02:32:04.699Z,1.20
2019-01-06T02:35:12.062Z,1.53
2019-01-06T02:38:11.803Z,1.17
2019-01-06T02:40:59.442Z,1.20
2019-01-06T02:43:55.423Z,1.10
2019-01-06T02:46:43.641Z,1.00
2019-01-06T02:49:45.292Z,1.30
2019-01-06T02:52:28.477Z,1.00
2019-01-06T02:55:19.184Z,1.10
2019-01-06T02:58:26.422Z,1.00
2019-01-06T03:01:18.145Z,1.17
2019-01-06T03:04:20.653Z,1.40
2019-01-06T03:07:24.471Z,1.10
2019-01-06T03:10:13.646Z,0.90
2019-01-06T03:13:08.512Z,1.10
2019-01-06T03:15:52.059Z,1.02
2019-01-06T03:18:41.537Z,1.10
2019-01-06T03:21:30.874Z,0.97
2019-01-06T03:24:24.379Z,1.00
2019-01-06T03:27:22.687Z,1.00
2019-01-06T03:30:14.894Z,1.13
2019-01-06T03:33:30.766Z,1.10
2019-01-06T03:36:31.378Z,1.00
2019-01-06T03:39:23.408Z,1.30
2019-01-06T03:42:11.274Z,1.00
2019-01-06T03:45:09.755Z,1.00
2019-01-06T03:48:05.579Z,1.00
2019-01-06T03:50:57.195Z,1.10
2019-01-06T03:53:58.550Z,1.10
2019-01-06T03:56:46.823Z,1.10
2019-01-06T03:59:39.653Z,1.00
2019-01-06T04:02:27.187Z,1.10
2019-01-06T04:05:31.604Z,1.10
2019-01-06T04:08:20.923Z,1.10
2019-01-06T04:11:14.990Z,1.10
2019-01-06T04:14:06.757Z,1.30
2019-01-06T04:17:00.778Z,1.10
2019-01-06T04:20:04.971Z,1.20
2019-01-06T04:23:03.124Z,1.30
2019-01-06T04:25:58.543Z,1.37
2019-01-06T04:28:53.067Z,1.00
2019-01-06T04:31:51.078Z,1.00
2019-01-06T04:34:51.255Z,1.10
2019-01-06T04:37:32.704Z,1.07
2019-01-06T04:40:22.992Z,1.30
2019-01-06T04:43:13.782Z,1.20
2019-01-06T04:46:02.346Z,0.90
2019-01-06T04:48:50.952Z,0.90
2019-01-06T04:51:46.902Z,1.00
2019-01-06T04:54:37.013Z,1.10
2019-01-06T04:57:24.183Z,1.00
2019-01-06T05:00:08.756Z,1.30
2019-01-06T05:02:59.171Z,1.37
2019-01-06T05:05:49.728Z,1.10
2019-01-06T05:08:42.660Z,0.90
2019-01-06T05:11:29.903Z,0.97
2019-01-06T05:14:17.427Z,1.13
2019-01-06T05:20:19.991Z,1.10
2019-01-06T05:23:20.798Z,0.90
2019-01-06T05:26:19.980Z,1.00
2019-01-06T05:29:09.474Z,0.97
2019-01-06T05:31:57.272Z,1.27
2019-01-06T05:35:09.174Z,1.10
2019-01-06T05:38:04.703Z,0.90
2019-01-06T05:41:02.639Z,0.90
2019-01-06T05:43:48.760Z,1.13
2019-01-06T05:46:37.437Z,1.00
2019-01-06T05:49:35.713Z,0.90
2019-01-06T05:52:37.852Z,0.90
2019-01-06T05:55:29.819Z,1.20
2019-01-06T05:58:17.985Z,1.10
2019-01-06T06:01:10.843Z,1.00
2019-01-06T06:04:03.293Z,0.90
2019-01-06T06:06:53.905Z,1.23
2019-01-06T06:09:43.767Z,1.03
2019-01-06T06:12:34.036Z,0.97
2019-01-06T06:15:34.246Z,1.10
2019-01-06T06:18:30.753Z,1.00
2019-01-06T06:21:23.858Z,1.10
2019-01-06T06:24:25.131Z,1.17
2019-01-06T06:27:19.628Z,1.17
2019-01-06T06:30:06.881Z,1.10
2019-01-06T06:32:54.177Z,1.37
2019-01-06T06:35:49.937Z,1.17
2019-01-06T06:38:51.208Z,1.40
2019-01-06T06:41:40.766Z,1.30
2019-01-06T06:44:28.943Z,1.40
2019-01-06T06:47:20.847Z,1.43
2019-01-06T06:50:08.773Z,1.30
2019-01-06T06:52:54.841Z,1.13
2019-01-06T06:56:01.806Z,1.50
2019-01-06T06:58:50.036Z,1.50
2019-01-06T07:02:00.409Z,1.83
2019-01-06T07:04:48.690Z,1.70
2019-01-06T07:07:49.767Z,1.50
2019-01-06T07:10:57.224Z,1.93
2019-01-06T07:32:24.334Z,1.70
2019-01-06T07:35:14.984Z,1.63
2019-01-06T07:41:41.290Z,1.77
2019-01-06T07:44:36.039Z,1.50
2019-01-06T07:47:23.789Z,3.07
2019-01-06T07:53:12.226Z,2.10
2019-01-06T07:56:10.460Z,3.30
2019-01-06T07:59:05.226Z,2.80
2019-01-06T08:02:12.278Z,4.27
2019-01-06T08:05:03.041Z,1.67
2019-01-06T08:07:50.920Z,1.87
2019-01-06T08:10:39.246Z,1.50
2019-01-06T08:13:34.274Z,1.67
2019-01-06T08:16:25.333Z,1.50
2019-01-06T08:19:14.064Z,1.80
2019-01-06T08:22:02.483Z,2.00
2019-01-06T08:25:20.114Z,1.70
2019-01-06T08:28:41.400Z,1.50
2019-01-06T08:45:58.745Z,1.67
2019-01-06T08:49:26.338Z,2.60
2019-01-06T08:52:20.533Z,2.57
2019-01-06T08:55:23.696Z,1.40
2019-01-06T08:58:12.936Z,1.50
2019-01-06T09:01:05.375Z,1.33
2019-01-06T09:04:50.704Z,1.50
2019-01-06T09:08:39.164Z,2.50
2019-01-06T09:11:32.807Z,3.30
2019-01-06T09:14:35.378Z,2.40
2019-01-06T09:18:08.611Z,2.70
2019-01-06T09:21:28.531Z,2.40
2019-01-06T09:24:58.939Z,2.40
2019-01-06T09:32:02.123Z,4.10
2019-01-06T09:35:17.213Z,3.10
2019-01-06T09:38:20.121Z,2.77
2019-01-06T09:41:15.894Z,2.50
2019-01-06T09:47:16.457Z,2.30
2019-01-06T09:50:11.202Z,1.67
2019-01-06T09:53:07.593Z,2.07
2019-01-06T09:56:24.635Z,2.50
2019-01-06T09:59:49.310Z,1.40
2019-01-06T10:06:07.031Z,1.53
2019-01-06T10:09:13.876Z,1.47
2019-01-06T10:11:58.850Z,1.20
2019-01-06T10:15:05.133Z,1.33
2019-01-06T10:18:09.655Z,1.37
2019-01-06T10:21:10.555Z,1.37
2019-01-06T10:24:36.486Z,1.30
2019-01-06T10:36:26.084Z,1.23
2019-01-06T10:38:19.096Z,1.80
2019-01-06T10:41:08.985Z,1.20
2019-01-06T10:44:04.909Z,1.20
2019-01-06T10:47:50.353Z,1.30
2019-01-06T10:50:38.115Z,1.40
2019-01-06T10:53:32.420Z,1.17
2019-01-06T11:00:27.903Z,1.17
2019-01-06T11:07:29.788Z,1.50
2019-01-06T11:10:30.386Z,1.73
2019-01-06T11:14:00.207Z,1.43
2019-01-06T11:21:27.446Z,1.50
2019-01-06T11:32:27.342Z,2.30
2019-01-06T11:35:31.751Z,2.47
2019-01-06T11:39:00.704Z,2.23
2019-01-06T11:42:00.568Z,6.07
2019-01-06T11:44:54.246Z,2.73
2019-01-06T11:47:54.889Z,3.30
2019-01-06T11:51:01.874Z,2.10
2019-01-06T11:54:13.262Z,1.30
2019-01-06T11:57:12.061Z,1.73
2019-01-06T12:00:17.898Z,1.47
2019-01-06T12:03:26.227Z,1.50
2019-01-06T12:06:28.647Z,1.40
2019-01-06T12:09:34.077Z,1.33
2019-01-06T12:12:39.925Z,1.20
2019-01-06T12:15:32.058Z,1.32
2019-01-06T12:18:32.071Z,1.70
2019-01-06T12:21:29.105Z,1.37
2019-01-06T13:05:44.594Z,1.20
2019-01-06T13:25:09.791Z,1.30
2019-01-06T14:30:43.471Z,1.10
2019-01-06T14:44:33.101Z,1.40
2019-01-06T14:51:39.369Z,1.50
2019-01-06T14:58:49.269Z,1.20
2019-01-06T15:02:45.869Z,1.60
2019-01-06T15:41:05.448Z,2.20
2019-01-06T15:44:08.268Z,1.90
2019-01-06T15:47:12.118Z,2.27
2019-01-06T15:53:05.573Z,4.03
2019-01-06T15:55:53.537Z,3.40
2019-01-06T15:58:54.505Z,3.60
2019-01-06T16:02:20.749Z,3.07
2019-01-06T16:05:18.147Z,2.37
2019-01-06T16:08:18.509Z,2.83
2019-01-06T16:18:13.380Z,2.87
2019-01-06T16:21:13.087Z,3.93
2019-01-06T16:24:35.062Z,3.80
2019-01-06T16:27:51.623Z,3.60
2019-01-06T16:30:44.576Z,3.53
2019-01-06T16:33:53.778Z,3.70
2019-01-06T16:36:54.966Z,3.00
2019-01-06T16:40:10.157Z,3.80
2019-01-06T16:43:42.596Z,3.33
2019-01-06T16:46:35.290Z,2.40
2019-01-06T16:49:29.886Z,2.50
2019-01-06T16:52:37.766Z,3.20
2019-01-06T16:56:01.277Z,2.50
2019-01-06T16:59:21.816Z,2.37
2019-01-06T17:10:12.795Z,3.13
2019-01-06T17:16:35.118Z,4.17
2019-01-06T17:19:36.004Z,2.67
2019-01-06T17:22:26.191Z,2.00
2019-01-06T17:25:24.080Z,3.17
2019-01-06T17:28:21.376Z,3.07
2019-01-06T17:31:16.296Z,4.23
2019-01-06T17:34:20.747Z,4.40
2019-01-06T17:43:52.338Z,4.83
2019-01-06T17:46:55.129Z,5.10
2019-01-06T17:49:51.463Z,4.97
2019-01-06T17:53:10.158Z,4.17
2019-01-06T17:56:24.492Z,6.03
2019-01-06T18:03:12.018Z,4.40
2019-01-06T18:06:14.910Z,5.80
2019-01-06T18:09:12.271Z,1.90
2019-01-06T18:12:07.645Z,4.40
2019-01-06T18:15:10.096Z,5.13
2019-01-06T18:29:27.080Z,4.10
2019-01-06T18:32:51.730Z,8.00
2019-01-06T18:36:31.979Z,6.00
2019-01-06T18:39:26.438Z,4.83
2019-01-06T18:42:25.829Z,5.53
2019-01-06T18:45:20.736Z,4.60
2019-01-06T18:48:13.852Z,3.50
2019-01-06T18:51:05.689Z,3.17
2019-01-06T18:54:06.498Z,3.07
2019-01-06T18:56:59.346Z,2.97
2019-01-06T18:59:48.788Z,2.67
2019-01-06T19:06:15.910Z,2.50
2019-01-06T19:13:07.656Z,3.30
2019-01-06T19:16:48.541Z,3.60
2019-01-06T19:21:14.529Z,3.40
2019-01-06T19:34:17.778Z,6.07
2019-01-06T19:41:14.882Z,5.20
2019-01-06T19:44:59.116Z,2.90
2019-01-06T19:48:07.313Z,2.00
2019-01-06T19:51:32.545Z,2.10
2019-01-06T19:57:36.932Z,1.87
2019-01-06T19:59:22.078Z,2.70
2019-01-06T20:00:52.946Z,1.37
2019-01-06T20:08:05.690Z,1.83
2019-01-06T20:11:48.593Z,1.90
2019-01-06T20:22:07.713Z,1.40
2019-01-06T20:25:45.208Z,1.43
2019-01-06T20:46:36.582Z,1.80
2019-01-06T20:49:46.870Z,1.60
2019-01-06T20:52:54.282Z,1.42
2019-01-06T20:55:46.701Z,1.10
2019-01-06T20:58:57.366Z,1.77
2019-01-06T21:02:04.617Z,1.47
2019-01-06T21:20:41.531Z,1.70
2019-01-06T21:27:10.806Z,1.40
2019-01-06T21:30:45.822Z,1.90
2019-01-06T21:40:42.016Z,1.00
2019-01-06T21:44:09.792Z,1.65
2019-01-06T21:47:02.482Z,1.50
2019-01-06T21:50:03.855Z,1.27
2019-01-06T21:56:51.759Z,1.57
2019-01-06T21:59:57.676Z,1.30
2019-01-06T22:03:20.396Z,1.30
2019-01-06T22:06:28.117Z,1.27
2019-01-06T22:09:22.356Z,1.00
2019-01-06T22:12:22.637Z,1.20
2019-01-06T22:15:19.632Z,0.90
2019-01-06T22:18:18.932Z,1.23
2019-01-06T22:21:13.721Z,1.00
2019-01-06T22:24:20.374Z,1.00
2019-01-06T22:27:25.461Z,1.20
2019-01-06T22:30:30.015Z,1.10
2019-01-06T22:33:34.313Z,1.03
2019-01-06T22:36:31.688Z,1.10
2019-01-06T22:39:40.275Z,1.27
2019-01-06T22:42:42.557Z,1.10
2019-01-06T22:45:47.818Z,1.00
2019-01-06T22:48:45.951Z,1.20
2019-01-06T22:51:33.593Z,1.10
2019-01-06T22:54:50.110Z,1.00
2019-01-06T22:58:18.324Z,1.30
2019-01-06T23:01:49.632Z,1.20
2019-01-06T23:07:38.128Z,1.13
2019-01-06T23:10:24.952Z,1.10
2019-01-06T23:13:36.262Z,1.10
2019-01-06T23:16:29.076Z,1.07
2019-01-06T23:19:34.015Z,1.20
2019-01-06T23:22:34.025Z,1.10
2019-01-06T23:25:32.909Z,1.13
2019-01-06T23:28:45.643Z,1.17
2019-01-06T23:31:35.814Z,1.20
2019-01-06T23:37:44.938Z,1.20
2019-01-06T23:40:54.881Z,1.00
2019-01-06T23:44:16.233Z,1.10
2019-01-06T23:47:58.495Z,1.12
2019-01-06T23:51:00.493Z,1.27
2019-01-06T23:53:59.647Z,1.20
2019-01-06T23:56:53.297Z,1.30
2019-01-06T23:59:53.705Z,1.20
